sensor_id;sensor_type;location;lat;lon;timestamp;P1;durP1;ratioP1;P2;durP2;ratioP2
45522;SDS011;31254;51.680;5.394;2023-05-17T00:02:08;10.32;;;2.92;;
45522;SDS011;31254;51.680;5.394;2023-05-17T00:04:35;14.18;;;3.05;;
45522;SDS011;31254;51.680;5.394;2023-05-17T00:07:05;15.02;;;3.28;;
45522;SDS011;31254;51.680;5.394;2023-05-17T00:09:32;13.40;;;3.85;;
45522;SDS011;31254;51.680;5.394;2023-05-17T00:11:58;10.57;;;2.95;;
45522;SDS011;31254;51.680;5.394;2023-05-17T00:14:25;14.43;;;3.35;;
45522;SDS011;31254;51.680;5.394;2023-05-17T00:16:52;21.83;;;3.80;;
45522;SDS011;31254;51.680;5.394;2023-05-17T00:19:19;18.38;;;3.45;;
45522;SDS011;31254;51.680;5.394;2023-05-17T00:21:46;13.18;;;3.80;;
45522;SDS011;31254;51.680;5.394;2023-05-17T00:24:13;15.30;;;3.50;;
45522;SDS011;31254;51.680;5.394;2023-05-17T00:26:40;16.17;;;3.20;;
45522;SDS011;31254;51.680;5.394;2023-05-17T00:29:07;16.80;;;4.05;;
45522;SDS011;31254;51.680;5.394;2023-05-17T00:31:39;19.48;;;3.28;;
45522;SDS011;31254;51.680;5.394;2023-05-17T00:34:06;17.98;;;3.47;;
45522;SDS011;31254;51.680;5.394;2023-05-17T00:36:33;15.95;;;4.00;;
45522;SDS011;31254;51.680;5.394;2023-05-17T00:39:00;12.93;;;3.85;;
45522;SDS011;31254;51.680;5.394;2023-05-17T00:41:27;20.98;;;3.88;;
45522;SDS011;31254;51.680;5.394;2023-05-17T00:43:53;11.68;;;3.28;;
45522;SDS011;31254;51.680;5.394;2023-05-17T00:46:21;13.10;;;3.72;;
45522;SDS011;31254;51.680;5.394;2023-05-17T00:48:48;15.68;;;3.97;;
45522;SDS011;31254;51.680;5.394;2023-05-17T00:51:18;16.35;;;3.40;;
45522;SDS011;31254;51.680;5.394;2023-05-17T00:53:48;17.38;;;3.72;;
45522;SDS011;31254;51.680;5.394;2023-05-17T00:56:16;19.05;;;4.18;;
45522;SDS011;31254;51.680;5.394;2023-05-17T00:58:42;13.88;;;3.65;;
45522;SDS011;31254;51.680;5.394;2023-05-17T01:01:14;17.75;;;4.05;;
45522;SDS011;31254;51.680;5.394;2023-05-17T01:03:42;15.35;;;4.13;;
45522;SDS011;31254;51.680;5.394;2023-05-17T01:06:11;15.20;;;4.00;;
45522;SDS011;31254;51.680;5.394;2023-05-17T01:08:38;11.55;;;3.80;;
45522;SDS011;31254;51.680;5.394;2023-05-17T01:16:56;11.88;;;3.75;;
45522;SDS011;31254;51.680;5.394;2023-05-17T01:27:16;10.27;;;3.78;;
45522;SDS011;31254;51.680;5.394;2023-05-17T01:29:44;17.73;;;4.30;;
45522;SDS011;31254;51.680;5.394;2023-05-17T01:32:14;19.60;;;4.95;;
45522;SDS011;31254;51.680;5.394;2023-05-17T01:34:41;13.48;;;4.35;;
45522;SDS011;31254;51.680;5.394;2023-05-17T01:37:10;12.18;;;3.85;;
45522;SDS011;31254;51.680;5.394;2023-05-17T01:39:37;17.60;;;4.40;;
45522;SDS011;31254;51.680;5.394;2023-05-17T01:42:15;20.50;;;5.40;;
45522;SDS011;31254;51.680;5.394;2023-05-17T01:47:20;15.95;;;4.57;;
45522;SDS011;31254;51.680;5.394;2023-05-17T01:49:53;14.80;;;4.90;;
45522;SDS011;31254;51.680;5.394;2023-05-17T01:58:08;12.40;;;4.40;;
45522;SDS011;31254;51.680;5.394;2023-05-17T02:00:37;12.88;;;4.38;;
45522;SDS011;31254;51.680;5.394;2023-05-17T02:03:05;15.63;;;4.43;;
45522;SDS011;31254;51.680;5.394;2023-05-17T02:05:32;14.30;;;4.88;;
45522;SDS011;31254;51.680;5.394;2023-05-17T02:07:59;15.15;;;4.28;;
45522;SDS011;31254;51.680;5.394;2023-05-17T02:10:26;14.20;;;4.82;;
45522;SDS011;31254;51.680;5.394;2023-05-17T02:12:53;20.95;;;5.53;;
45522;SDS011;31254;51.680;5.394;2023-05-17T02:15:22;12.68;;;4.72;;
45522;SDS011;31254;51.680;5.394;2023-05-17T02:17:48;18.73;;;5.00;;
45522;SDS011;31254;51.680;5.394;2023-05-17T02:20:15;21.40;;;5.32;;
45522;SDS011;31254;51.680;5.394;2023-05-17T02:22:44;23.17;;;4.97;;
45522;SDS011;31254;51.680;5.394;2023-05-17T02:25:11;15.93;;;5.28;;
45522;SDS011;31254;51.680;5.394;2023-05-17T02:27:41;14.38;;;5.35;;
45522;SDS011;31254;51.680;5.394;2023-05-17T02:30:08;18.58;;;5.03;;
45522;SDS011;31254;51.680;5.394;2023-05-17T02:32:42;19.35;;;5.13;;
45522;SDS011;31254;51.680;5.394;2023-05-17T02:35:09;15.60;;;4.35;;
45522;SDS011;31254;51.680;5.394;2023-05-17T02:37:38;15.13;;;5.47;;
45522;SDS011;31254;51.680;5.394;2023-05-17T02:40:05;10.27;;;4.45;;
45522;SDS011;31254;51.680;5.394;2023-05-17T02:42:37;12.90;;;4.40;;
45522;SDS011;31254;51.680;5.394;2023-05-17T02:45:06;20.05;;;5.32;;
45522;SDS011;31254;51.680;5.394;2023-05-17T02:47:33;13.38;;;4.45;;
45522;SDS011;31254;51.680;5.394;2023-05-17T02:50:00;14.80;;;4.72;;
45522;SDS011;31254;51.680;5.394;2023-05-17T02:52:32;13.43;;;4.82;;
45522;SDS011;31254;51.680;5.394;2023-05-17T02:55:01;14.82;;;4.72;;
45522;SDS011;31254;51.680;5.394;2023-05-17T02:57:29;13.05;;;4.57;;
45522;SDS011;31254;51.680;5.394;2023-05-17T02:59:56;20.55;;;4.88;;
45522;SDS011;31254;51.680;5.394;2023-05-17T03:02:23;16.50;;;5.15;;
45522;SDS011;31254;51.680;5.394;2023-05-17T03:04:50;13.82;;;5.50;;
45522;SDS011;31254;51.680;5.394;2023-05-17T03:07:18;14.13;;;4.93;;
45522;SDS011;31254;51.680;5.394;2023-05-17T03:09:44;18.52;;;5.80;;
45522;SDS011;31254;51.680;5.394;2023-05-17T03:12:11;13.88;;;5.40;;
45522;SDS011;31254;51.680;5.394;2023-05-17T03:14:38;13.00;;;5.18;;
45522;SDS011;31254;51.680;5.394;2023-05-17T03:17:08;16.77;;;5.30;;
45522;SDS011;31254;51.680;5.394;2023-05-17T03:19:41;14.38;;;4.88;;
45522;SDS011;31254;51.680;5.394;2023-05-17T03:22:11;13.27;;;4.72;;
45522;SDS011;31254;51.680;5.394;2023-05-17T03:24:40;12.25;;;5.53;;
45522;SDS011;31254;51.680;5.394;2023-05-17T03:27:07;11.60;;;5.38;;
45522;SDS011;31254;51.680;5.394;2023-05-17T03:29:34;15.75;;;5.60;;
45522;SDS011;31254;51.680;5.394;2023-05-17T03:32:04;18.15;;;5.28;;
45522;SDS011;31254;51.680;5.394;2023-05-17T03:34:31;14.27;;;5.15;;
45522;SDS011;31254;51.680;5.394;2023-05-17T03:36:59;15.88;;;5.55;;
45522;SDS011;31254;51.680;5.394;2023-05-17T03:39:29;12.52;;;5.18;;
45522;SDS011;31254;51.680;5.394;2023-05-17T03:41:57;15.77;;;5.65;;
45522;SDS011;31254;51.680;5.394;2023-05-17T03:44:24;19.10;;;6.43;;
45522;SDS011;31254;51.680;5.394;2023-05-17T03:46:51;14.90;;;5.00;;
45522;SDS011;31254;51.680;5.394;2023-05-17T03:49:20;15.55;;;5.75;;
45522;SDS011;31254;51.680;5.394;2023-05-17T03:51:47;18.27;;;5.40;;
45522;SDS011;31254;51.680;5.394;2023-05-17T03:54:14;15.70;;;5.43;;
45522;SDS011;31254;51.680;5.394;2023-05-17T03:56:41;22.67;;;6.07;;
45522;SDS011;31254;51.680;5.394;2023-05-17T03:59:12;19.08;;;5.30;;
45522;SDS011;31254;51.680;5.394;2023-05-17T04:01:41;19.45;;;5.70;;
45522;SDS011;31254;51.680;5.394;2023-05-17T04:04:08;15.95;;;5.63;;
45522;SDS011;31254;51.680;5.394;2023-05-17T04:06:36;10.48;;;5.55;;
45522;SDS011;31254;51.680;5.394;2023-05-17T04:09:04;14.30;;;5.18;;
45522;SDS011;31254;51.680;5.394;2023-05-17T04:11:32;14.82;;;5.05;;
45522;SDS011;31254;51.680;5.394;2023-05-17T04:13:59;16.48;;;5.47;;
45522;SDS011;31254;51.680;5.394;2023-05-17T04:16:26;20.33;;;5.22;;
45522;SDS011;31254;51.680;5.394;2023-05-17T04:18:53;13.10;;;5.63;;
45522;SDS011;31254;51.680;5.394;2023-05-17T04:21:20;16.85;;;5.85;;
45522;SDS011;31254;51.680;5.394;2023-05-17T04:23:46;15.10;;;5.82;;
45522;SDS011;31254;51.680;5.394;2023-05-17T04:26:13;12.27;;;5.00;;
45522;SDS011;31254;51.680;5.394;2023-05-17T04:28:40;16.15;;;4.68;;
45522;SDS011;31254;51.680;5.394;2023-05-17T04:31:07;11.02;;;4.47;;
45522;SDS011;31254;51.680;5.394;2023-05-17T04:33:36;15.07;;;5.32;;
45522;SDS011;31254;51.680;5.394;2023-05-17T04:36:03;12.18;;;5.47;;
45522;SDS011;31254;51.680;5.394;2023-05-17T04:38:29;11.68;;;5.30;;
45522;SDS011;31254;51.680;5.394;2023-05-17T04:41:02;12.15;;;5.00;;
45522;SDS011;31254;51.680;5.394;2023-05-17T04:43:32;13.75;;;5.05;;
45522;SDS011;31254;51.680;5.394;2023-05-17T04:45:59;12.45;;;5.30;;
45522;SDS011;31254;51.680;5.394;2023-05-17T04:48:26;18.10;;;5.15;;
45522;SDS011;31254;51.680;5.394;2023-05-17T04:51:01;12.13;;;5.00;;
45522;SDS011;31254;51.680;5.394;2023-05-17T04:53:29;13.32;;;5.43;;
45522;SDS011;31254;51.680;5.394;2023-05-17T04:55:57;12.18;;;4.38;;
45522;SDS011;31254;51.680;5.394;2023-05-17T04:58:24;15.00;;;5.30;;
45522;SDS011;31254;51.680;5.394;2023-05-17T05:00:53;17.05;;;4.97;;
45522;SDS011;31254;51.680;5.394;2023-05-17T05:03:23;12.65;;;5.15;;
45522;SDS011;31254;51.680;5.394;2023-05-17T05:05:50;18.23;;;4.88;;
45522;SDS011;31254;51.680;5.394;2023-05-17T05:08:16;15.38;;;5.35;;
45522;SDS011;31254;51.680;5.394;2023-05-17T05:10:44;20.38;;;5.20;;
45522;SDS011;31254;51.680;5.394;2023-05-17T05:13:11;13.20;;;5.30;;
45522;SDS011;31254;51.680;5.394;2023-05-17T05:15:38;15.23;;;4.82;;
45522;SDS011;31254;51.680;5.394;2023-05-17T05:18:07;24.05;;;4.63;;
45522;SDS011;31254;51.680;5.394;2023-05-17T05:20:36;16.77;;;5.65;;
45522;SDS011;31254;51.680;5.394;2023-05-17T05:23:03;18.40;;;4.03;;
45522;SDS011;31254;51.680;5.394;2023-05-17T05:25:31;16.67;;;3.85;;
45522;SDS011;31254;51.680;5.394;2023-05-17T05:27:58;13.52;;;4.32;;
45522;SDS011;31254;51.680;5.394;2023-05-17T05:30:25;14.10;;;3.65;;
45522;SDS011;31254;51.680;5.394;2023-05-17T05:32:52;15.98;;;3.80;;
45522;SDS011;31254;51.680;5.394;2023-05-17T05:35:19;18.65;;;4.40;;
45522;SDS011;31254;51.680;5.394;2023-05-17T05:37:46;9.70;;;3.20;;
45522;SDS011;31254;51.680;5.394;2023-05-17T05:40:12;16.92;;;3.78;;
45522;SDS011;31254;51.680;5.394;2023-05-17T05:42:40;13.82;;;3.47;;
45522;SDS011;31254;51.680;5.394;2023-05-17T05:45:09;12.35;;;3.97;;
45522;SDS011;31254;51.680;5.394;2023-05-17T05:47:36;10.70;;;2.78;;
45522;SDS011;31254;51.680;5.394;2023-05-17T05:50:03;15.15;;;3.83;;
45522;SDS011;31254;51.680;5.394;2023-05-17T05:52:33;16.15;;;3.65;;
45522;SDS011;31254;51.680;5.394;2023-05-17T05:55:00;16.27;;;2.53;;
45522;SDS011;31254;51.680;5.394;2023-05-17T05:57:27;16.52;;;2.97;;
45522;SDS011;31254;51.680;5.394;2023-05-17T05:59:53;15.65;;;3.03;;
45522;SDS011;31254;51.680;5.394;2023-05-17T06:02:20;13.40;;;2.90;;
45522;SDS011;31254;51.680;5.394;2023-05-17T06:04:48;11.00;;;2.35;;
45522;SDS011;31254;51.680;5.394;2023-05-17T06:07:15;15.70;;;2.45;;
45522;SDS011;31254;51.680;5.394;2023-05-17T06:09:44;8.65;;;2.08;;
45522;SDS011;31254;51.680;5.394;2023-05-17T06:12:13;11.38;;;2.42;;
45522;SDS011;31254;51.680;5.394;2023-05-17T06:14:40;15.48;;;2.78;;
45522;SDS011;31254;51.680;5.394;2023-05-17T06:17:09;11.90;;;1.90;;
45522;SDS011;31254;51.680;5.394;2023-05-17T06:19:36;13.98;;;2.40;;
45522;SDS011;31254;51.680;5.394;2023-05-17T06:22:03;17.02;;;2.80;;
45522;SDS011;31254;51.680;5.394;2023-05-17T06:24:30;18.33;;;2.10;;
45522;SDS011;31254;51.680;5.394;2023-05-17T06:26:58;12.48;;;2.58;;
45522;SDS011;31254;51.680;5.394;2023-05-17T06:29:25;16.58;;;2.58;;
45522;SDS011;31254;51.680;5.394;2023-05-17T06:31:51;11.50;;;2.22;;
45522;SDS011;31254;51.680;5.394;2023-05-17T06:34:18;11.10;;;2.25;;
45522;SDS011;31254;51.680;5.394;2023-05-17T06:36:45;11.75;;;1.98;;
45522;SDS011;31254;51.680;5.394;2023-05-17T06:39:14;15.32;;;2.42;;
45522;SDS011;31254;51.680;5.394;2023-05-17T06:41:43;15.40;;;2.60;;
45522;SDS011;31254;51.680;5.394;2023-05-17T06:44:10;16.60;;;1.98;;
45522;SDS011;31254;51.680;5.394;2023-05-17T06:46:39;13.20;;;2.10;;
45522;SDS011;31254;51.680;5.394;2023-05-17T06:49:05;15.32;;;2.42;;
45522;SDS011;31254;51.680;5.394;2023-05-17T06:51:32;14.63;;;2.47;;
45522;SDS011;31254;51.680;5.394;2023-05-17T06:54:01;13.88;;;2.25;;
45522;SDS011;31254;51.680;5.394;2023-05-17T06:56:28;15.82;;;1.92;;
45522;SDS011;31254;51.680;5.394;2023-05-17T06:58:55;14.32;;;1.80;;
45522;SDS011;31254;51.680;5.394;2023-05-17T07:01:24;16.42;;;2.30;;
45522;SDS011;31254;51.680;5.394;2023-05-17T07:03:51;11.02;;;2.05;;
45522;SDS011;31254;51.680;5.394;2023-05-17T07:06:18;12.73;;;2.05;;
45522;SDS011;31254;51.680;5.394;2023-05-17T07:08:45;8.95;;;1.80;;
45522;SDS011;31254;51.680;5.394;2023-05-17T07:11:11;12.93;;;2.15;;
45522;SDS011;31254;51.680;5.394;2023-05-17T07:13:38;15.80;;;2.08;;
45522;SDS011;31254;51.680;5.394;2023-05-17T07:16:07;9.15;;;1.95;;
45522;SDS011;31254;51.680;5.394;2023-05-17T07:18:34;10.55;;;1.63;;
45522;SDS011;31254;51.680;5.394;2023-05-17T07:21:01;8.23;;;1.55;;
45522;SDS011;31254;51.680;5.394;2023-05-17T07:23:30;10.70;;;1.80;;
45522;SDS011;31254;51.680;5.394;2023-05-17T07:25:57;11.85;;;1.83;;
45522;SDS011;31254;51.680;5.394;2023-05-17T07:28:24;8.48;;;1.50;;
45522;SDS011;31254;51.680;5.394;2023-05-17T07:30:51;9.10;;;1.45;;
45522;SDS011;31254;51.680;5.394;2023-05-17T07:33:18;10.32;;;2.10;;
45522;SDS011;31254;51.680;5.394;2023-05-17T07:35:45;14.32;;;2.13;;
45522;SDS011;31254;51.680;5.394;2023-05-17T07:38:13;11.93;;;1.58;;
45522;SDS011;31254;51.680;5.394;2023-05-17T07:40:39;10.82;;;2.05;;
45522;SDS011;31254;51.680;5.394;2023-05-17T07:43:11;9.27;;;1.58;;
45522;SDS011;31254;51.680;5.394;2023-05-17T07:45:41;8.88;;;1.55;;
45522;SDS011;31254;51.680;5.394;2023-05-17T07:48:12;10.90;;;1.63;;
45522;SDS011;31254;51.680;5.394;2023-05-17T07:50:40;7.88;;;1.55;;
45522;SDS011;31254;51.680;5.394;2023-05-17T07:53:06;12.70;;;2.72;;
45522;SDS011;31254;51.680;5.394;2023-05-17T07:55:34;9.93;;;2.00;;
45522;SDS011;31254;51.680;5.394;2023-05-17T07:58:00;6.75;;;1.83;;
45522;SDS011;31254;51.680;5.394;2023-05-17T08:00:27;7.75;;;1.50;;
45522;SDS011;31254;51.680;5.394;2023-05-17T08:02:55;9.35;;;1.60;;
45522;SDS011;31254;51.680;5.394;2023-05-17T08:05:22;9.10;;;1.55;;
45522;SDS011;31254;51.680;5.394;2023-05-17T08:07:49;8.27;;;1.40;;
45522;SDS011;31254;51.680;5.394;2023-05-17T08:10:17;9.73;;;1.52;;
45522;SDS011;31254;51.680;5.394;2023-05-17T08:12:44;10.25;;;2.10;;
45522;SDS011;31254;51.680;5.394;2023-05-17T08:15:13;11.80;;;1.67;;
45522;SDS011;31254;51.680;5.394;2023-05-17T08:17:39;13.50;;;1.65;;
45522;SDS011;31254;51.680;5.394;2023-05-17T08:20:06;14.35;;;2.08;;
45522;SDS011;31254;51.680;5.394;2023-05-17T08:22:36;7.57;;;1.35;;
45522;SDS011;31254;51.680;5.394;2023-05-17T08:25:03;7.32;;;1.60;;
45522;SDS011;31254;51.680;5.394;2023-05-17T08:27:32;9.52;;;1.75;;
45522;SDS011;31254;51.680;5.394;2023-05-17T08:29:59;6.30;;;1.30;;
45522;SDS011;31254;51.680;5.394;2023-05-17T08:32:37;5.63;;;1.40;;
45522;SDS011;31254;51.680;5.394;2023-05-17T08:35:04;6.80;;;1.25;;
45522;SDS011;31254;51.680;5.394;2023-05-17T08:37:31;3.78;;;1.00;;
45522;SDS011;31254;51.680;5.394;2023-05-17T08:39:58;10.15;;;1.60;;
45522;SDS011;31254;51.680;5.394;2023-05-17T08:42:24;10.50;;;1.73;;
45522;SDS011;31254;51.680;5.394;2023-05-17T08:44:55;9.13;;;1.20;;
45522;SDS011;31254;51.680;5.394;2023-05-17T08:47:25;9.55;;;1.40;;
45522;SDS011;31254;51.680;5.394;2023-05-17T08:49:59;10.63;;;1.85;;
45522;SDS011;31254;51.680;5.394;2023-05-17T08:52:27;8.82;;;1.63;;
45522;SDS011;31254;51.680;5.394;2023-05-17T08:54:56;9.93;;;1.50;;
45522;SDS011;31254;51.680;5.394;2023-05-17T08:57:23;9.48;;;1.35;;
45522;SDS011;31254;51.680;5.394;2023-05-17T08:59:53;7.75;;;1.35;;
45522;SDS011;31254;51.680;5.394;2023-05-17T09:02:20;9.38;;;1.85;;
45522;SDS011;31254;51.680;5.394;2023-05-17T09:04:52;10.73;;;1.38;;
45522;SDS011;31254;51.680;5.394;2023-05-17T09:07:21;9.48;;;1.70;;
45522;SDS011;31254;51.680;5.394;2023-05-17T09:09:54;9.30;;;1.10;;
45522;SDS011;31254;51.680;5.394;2023-05-17T09:12:21;10.35;;;1.40;;
45522;SDS011;31254;51.680;5.394;2023-05-17T09:14:53;8.38;;;1.30;;
45522;SDS011;31254;51.680;5.394;2023-05-17T09:17:20;7.78;;;1.35;;
45522;SDS011;31254;51.680;5.394;2023-05-17T09:19:47;11.50;;;2.00;;
45522;SDS011;31254;51.680;5.394;2023-05-17T09:22:19;11.15;;;1.15;;
45522;SDS011;31254;51.680;5.394;2023-05-17T09:24:46;13.13;;;1.42;;
45522;SDS011;31254;51.680;5.394;2023-05-17T09:27:15;8.93;;;1.70;;
45522;SDS011;31254;51.680;5.394;2023-05-17T09:29:43;12.23;;;1.50;;
45522;SDS011;31254;51.680;5.394;2023-05-17T09:32:17;8.07;;;1.08;;
45522;SDS011;31254;51.680;5.394;2023-05-17T09:34:50;4.72;;;1.20;;
45522;SDS011;31254;51.680;5.394;2023-05-17T09:37:18;8.98;;;1.42;;
45522;SDS011;31254;51.680;5.394;2023-05-17T09:39:48;11.05;;;1.70;;
45522;SDS011;31254;51.680;5.394;2023-05-17T09:42:15;13.63;;;1.55;;
45522;SDS011;31254;51.680;5.394;2023-05-17T09:44:49;7.47;;;1.42;;
45522;SDS011;31254;51.680;5.394;2023-05-17T09:47:25;9.60;;;1.48;;
45522;SDS011;31254;51.680;5.394;2023-05-17T09:49:57;5.22;;;1.38;;
45522;SDS011;31254;51.680;5.394;2023-05-17T09:52:28;5.05;;;1.23;;
45522;SDS011;31254;51.680;5.394;2023-05-17T09:55:00;8.65;;;1.13;;
45522;SDS011;31254;51.680;5.394;2023-05-17T09:57:27;10.65;;;1.58;;
45522;SDS011;31254;51.680;5.394;2023-05-17T10:00:02;4.22;;;1.20;;
45522;SDS011;31254;51.680;5.394;2023-05-17T10:02:37;8.65;;;1.20;;
45522;SDS011;31254;51.680;5.394;2023-05-17T10:05:09;6.13;;;1.05;;
45522;SDS011;31254;51.680;5.394;2023-05-17T10:07:37;4.95;;;1.10;;
45522;SDS011;31254;51.680;5.394;2023-05-17T10:10:06;8.50;;;1.33;;
45522;SDS011;31254;51.680;5.394;2023-05-17T10:12:34;7.53;;;1.25;;
45522;SDS011;31254;51.680;5.394;2023-05-17T10:15:04;6.93;;;1.40;;
45522;SDS011;31254;51.680;5.394;2023-05-17T10:17:32;5.55;;;1.10;;
45522;SDS011;31254;51.680;5.394;2023-05-17T10:20:02;5.28;;;1.02;;
45522;SDS011;31254;51.680;5.394;2023-05-17T10:22:32;4.72;;;1.20;;
45522;SDS011;31254;51.680;5.394;2023-05-17T10:24:59;6.90;;;1.42;;
45522;SDS011;31254;51.680;5.394;2023-05-17T10:27:26;8.15;;;1.73;;
45522;SDS011;31254;51.680;5.394;2023-05-17T10:29:55;5.68;;;1.73;;
45522;SDS011;31254;51.680;5.394;2023-05-17T10:32:23;8.88;;;1.48;;
45522;SDS011;31254;51.680;5.394;2023-05-17T10:34:53;8.38;;;1.33;;
45522;SDS011;31254;51.680;5.394;2023-05-17T10:37:37;7.07;;;1.42;;
45522;SDS011;31254;51.680;5.394;2023-05-17T10:40:06;4.30;;;1.23;;
45522;SDS011;31254;51.680;5.394;2023-05-17T10:42:44;5.57;;;1.38;;
45522;SDS011;31254;51.680;5.394;2023-05-17T10:45:17;14.80;;;1.63;;
45522;SDS011;31254;51.680;5.394;2023-05-17T10:47:52;5.97;;;1.13;;
45522;SDS011;31254;51.680;5.394;2023-05-17T10:50:25;6.40;;;1.13;;
45522;SDS011;31254;51.680;5.394;2023-05-17T10:52:52;7.47;;;1.00;;
45522;SDS011;31254;51.680;5.394;2023-05-17T10:55:33;7.95;;;1.52;;
45522;SDS011;31254;51.680;5.394;2023-05-17T10:58:07;5.03;;;1.17;;
45522;SDS011;31254;51.680;5.394;2023-05-17T11:00:48;4.93;;;0.98;;
45522;SDS011;31254;51.680;5.394;2023-05-17T11:03:21;11.18;;;1.40;;
45522;SDS011;31254;51.680;5.394;2023-05-17T11:06:11;7.03;;;1.20;;
45522;SDS011;31254;51.680;5.394;2023-05-17T11:09:34;5.30;;;1.00;;
45522;SDS011;31254;51.680;5.394;2023-05-17T11:12:05;6.28;;;1.98;;
45522;SDS011;31254;51.680;5.394;2023-05-17T11:14:54;6.47;;;1.10;;
45522;SDS011;31254;51.680;5.394;2023-05-17T11:17:33;4.75;;;0.90;;
45522;SDS011;31254;51.680;5.394;2023-05-17T11:20:28;3.50;;;0.85;;
45522;SDS011;31254;51.680;5.394;2023-05-17T11:25:35;5.85;;;1.00;;
45522;SDS011;31254;51.680;5.394;2023-05-17T11:28:21;8.38;;;1.33;;
45522;SDS011;31254;51.680;5.394;2023-05-17T11:30:48;8.13;;;1.27;;
45522;SDS011;31254;51.680;5.394;2023-05-17T11:33:19;7.82;;;1.35;;
45522;SDS011;31254;51.680;5.394;2023-05-17T11:36:03;7.47;;;1.35;;
45522;SDS011;31254;51.680;5.394;2023-05-17T11:38:32;6.10;;;1.45;;
45522;SDS011;31254;51.680;5.394;2023-05-17T11:41:14;6.13;;;1.13;;
45522;SDS011;31254;51.680;5.394;2023-05-17T11:43:52;5.75;;;0.80;;
45522;SDS011;31254;51.680;5.394;2023-05-17T11:46:20;5.90;;;1.33;;
45522;SDS011;31254;51.680;5.394;2023-05-17T11:48:50;5.78;;;1.08;;
45522;SDS011;31254;51.680;5.394;2023-05-17T11:51:19;17.67;;;1.55;;
45522;SDS011;31254;51.680;5.394;2023-05-17T11:53:50;7.18;;;1.33;;
45522;SDS011;31254;51.680;5.394;2023-05-17T11:56:21;10.02;;;1.27;;
45522;SDS011;31254;51.680;5.394;2023-05-17T11:59:07;4.70;;;0.80;;
45522;SDS011;31254;51.680;5.394;2023-05-17T12:01:43;3.70;;;0.70;;
45522;SDS011;31254;51.680;5.394;2023-05-17T12:04:21;3.47;;;0.80;;
45522;SDS011;31254;51.680;5.394;2023-05-17T12:06:58;5.25;;;1.08;;
45522;SDS011;31254;51.680;5.394;2023-05-17T12:09:27;6.25;;;0.95;;
45522;SDS011;31254;51.680;5.394;2023-05-17T12:11:56;3.63;;;1.20;;
45522;SDS011;31254;51.680;5.394;2023-05-17T12:14:25;8.50;;;1.38;;
45522;SDS011;31254;51.680;5.394;2023-05-17T12:16:52;3.35;;;1.08;;
45522;SDS011;31254;51.680;5.394;2023-05-17T12:19:22;12.02;;;1.20;;
45522;SDS011;31254;51.680;5.394;2023-05-17T12:21:51;5.72;;;0.90;;
45522;SDS011;31254;51.680;5.394;2023-05-17T12:24:18;3.03;;;0.60;;
45522;SDS011;31254;51.680;5.394;2023-05-17T12:26:45;7.70;;;0.98;;
45522;SDS011;31254;51.680;5.394;2023-05-17T12:29:12;3.03;;;1.08;;
45522;SDS011;31254;51.680;5.394;2023-05-17T12:31:50;4.60;;;0.88;;
45522;SDS011;31254;51.680;5.394;2023-05-17T12:34:19;4.47;;;0.90;;
45522;SDS011;31254;51.680;5.394;2023-05-17T12:36:51;5.22;;;0.98;;
45522;SDS011;31254;51.680;5.394;2023-05-17T12:39:18;4.53;;;1.10;;
45522;SDS011;31254;51.680;5.394;2023-05-17T12:41:49;2.67;;;0.80;;
45522;SDS011;31254;51.680;5.394;2023-05-17T12:44:19;5.90;;;0.80;;
45522;SDS011;31254;51.680;5.394;2023-05-17T12:46:49;5.32;;;1.15;;
45522;SDS011;31254;51.680;5.394;2023-05-17T12:49:19;4.93;;;1.25;;
45522;SDS011;31254;51.680;5.394;2023-05-17T12:51:48;6.50;;;1.30;;
45522;SDS011;31254;51.680;5.394;2023-05-17T12:54:26;4.88;;;1.42;;
45522;SDS011;31254;51.680;5.394;2023-05-17T12:56:53;6.80;;;0.95;;
45522;SDS011;31254;51.680;5.394;2023-05-17T12:59:23;5.68;;;1.10;;
45522;SDS011;31254;51.680;5.394;2023-05-17T13:01:55;6.00;;;0.93;;
45522;SDS011;31254;51.680;5.394;2023-05-17T13:04:29;5.15;;;1.25;;
45522;SDS011;31254;51.680;5.394;2023-05-17T13:07:02;3.85;;;0.93;;
45522;SDS011;31254;51.680;5.394;2023-05-17T13:09:30;6.30;;;1.30;;
45522;SDS011;31254;51.680;5.394;2023-05-17T13:11:59;3.38;;;0.88;;
45522;SDS011;31254;51.680;5.394;2023-05-17T13:17:25;4.60;;;0.90;;
45522;SDS011;31254;51.680;5.394;2023-05-17T13:19:59;5.18;;;0.93;;
45522;SDS011;31254;51.680;5.394;2023-05-17T13:22:27;7.68;;;1.48;;
45522;SDS011;31254;51.680;5.394;2023-05-17T13:24:53;11.48;;;1.73;;
45522;SDS011;31254;51.680;5.394;2023-05-17T13:27:22;8.80;;;1.73;;
45522;SDS011;31254;51.680;5.394;2023-05-17T13:29:49;3.72;;;1.13;;
45522;SDS011;31254;51.680;5.394;2023-05-17T13:32:16;6.55;;;1.30;;
45522;SDS011;31254;51.680;5.394;2023-05-17T13:34:44;7.07;;;1.42;;
45522;SDS011;31254;51.680;5.394;2023-05-17T13:37:11;3.95;;;1.40;;
45522;SDS011;31254;51.680;5.394;2023-05-17T13:39:38;8.25;;;1.00;;
45522;SDS011;31254;51.680;5.394;2023-05-17T13:42:09;7.15;;;1.35;;
45522;SDS011;31254;51.680;5.394;2023-05-17T13:44:37;3.90;;;1.20;;
45522;SDS011;31254;51.680;5.394;2023-05-17T13:47:04;6.50;;;1.30;;
45522;SDS011;31254;51.680;5.394;2023-05-17T13:49:36;4.32;;;1.25;;
45522;SDS011;31254;51.680;5.394;2023-05-17T13:52:03;2.97;;;0.80;;
45522;SDS011;31254;51.680;5.394;2023-05-17T13:54:34;3.88;;;0.65;;
45522;SDS011;31254;51.680;5.394;2023-05-17T13:57:04;10.25;;;1.40;;
45522;SDS011;31254;51.680;5.394;2023-05-17T13:59:31;8.65;;;1.30;;
45522;SDS011;31254;51.680;5.394;2023-05-17T14:02:01;3.30;;;1.10;;
45522;SDS011;31254;51.680;5.394;2023-05-17T14:04:29;4.57;;;1.00;;
45522;SDS011;31254;51.680;5.394;2023-05-17T14:06:58;7.32;;;1.30;;
45522;SDS011;31254;51.680;5.394;2023-05-17T14:09:25;6.93;;;1.20;;
45522;SDS011;31254;51.680;5.394;2023-05-17T14:11:58;6.25;;;1.20;;
45522;SDS011;31254;51.680;5.394;2023-05-17T14:14:26;7.45;;;1.17;;
45522;SDS011;31254;51.680;5.394;2023-05-17T14:16:54;8.05;;;1.45;;
45522;SDS011;31254;51.680;5.394;2023-05-17T14:19:23;5.25;;;1.10;;
45522;SDS011;31254;51.680;5.394;2023-05-17T14:21:49;8.50;;;1.27;;
45522;SDS011;31254;51.680;5.394;2023-05-17T14:24:16;6.75;;;1.27;;
45522;SDS011;31254;51.680;5.394;2023-05-17T14:26:43;8.50;;;1.50;;
45522;SDS011;31254;51.680;5.394;2023-05-17T14:29:09;5.25;;;1.33;;
45522;SDS011;31254;51.680;5.394;2023-05-17T14:31:37;8.18;;;1.20;;
45522;SDS011;31254;51.680;5.394;2023-05-17T14:34:03;4.25;;;1.10;;
45522;SDS011;31254;51.680;5.394;2023-05-17T14:36:33;7.68;;;1.20;;
45522;SDS011;31254;51.680;5.394;2023-05-17T14:39:01;9.15;;;2.03;;
45522;SDS011;31254;51.680;5.394;2023-05-17T14:41:29;8.05;;;1.30;;
45522;SDS011;31254;51.680;5.394;2023-05-17T14:43:55;7.07;;;1.13;;
45522;SDS011;31254;51.680;5.394;2023-05-17T14:46:22;7.05;;;1.42;;
45522;SDS011;31254;51.680;5.394;2023-05-17T14:48:49;4.43;;;1.15;;
45522;SDS011;31254;51.680;5.394;2023-05-17T14:51:17;6.70;;;1.40;;
45522;SDS011;31254;51.680;5.394;2023-05-17T14:53:45;4.72;;;1.10;;
45522;SDS011;31254;51.680;5.394;2023-05-17T14:56:12;5.95;;;1.20;;
45522;SDS011;31254;51.680;5.394;2023-05-17T14:58:40;4.40;;;0.93;;
45522;SDS011;31254;51.680;5.394;2023-05-17T15:01:07;9.68;;;1.80;;
45522;SDS011;31254;51.680;5.394;2023-05-17T15:03:34;5.53;;;1.10;;
45522;SDS011;31254;51.680;5.394;2023-05-17T15:06:01;8.20;;;1.30;;
45522;SDS011;31254;51.680;5.394;2023-05-17T15:08:32;5.80;;;1.10;;
45522;SDS011;31254;51.680;5.394;2023-05-17T15:11:00;6.60;;;1.10;;
45522;SDS011;31254;51.680;5.394;2023-05-17T15:13:29;6.75;;;1.60;;
45522;SDS011;31254;51.680;5.394;2023-05-17T15:15:56;4.32;;;1.30;;
45522;SDS011;31254;51.680;5.394;2023-05-17T15:18:24;5.22;;;1.23;;
45522;SDS011;31254;51.680;5.394;2023-05-17T15:20:51;6.78;;;1.05;;